createdAt,value
2019-01-13T00:01:12.830Z,10.00
2019-01-13T00:03:41.517Z,10.90
2019-01-13T00:06:10.225Z,9.93
2019-01-13T00:08:38.924Z,9.67
2019-01-13T00:11:07.623Z,10.87
2019-01-13T00:13:36.340Z,9.83
2019-01-13T00:16:05.119Z,9.83
2019-01-13T00:18:33.837Z,10.67
2019-01-13T00:21:02.560Z,10.60
2019-01-13T00:23:31.394Z,11.43
2019-01-13T00:26:00.083Z,10.70
2019-01-13T00:28:28.802Z,10.10
2019-01-13T00:30:57.541Z,10.97
2019-01-13T00:33:26.290Z,12.40
2019-01-13T00:35:55.138Z,11.63
2019-01-13T00:38:24.395Z,12.77
2019-01-13T00:40:53.080Z,11.20
2019-01-13T00:43:21.902Z,12.30
2019-01-13T00:45:50.579Z,12.57
2019-01-13T00:48:19.311Z,12.73
2019-01-13T00:50:48.107Z,11.60
2019-01-13T00:53:16.821Z,11.73
2019-01-13T00:55:45.722Z,12.20
2019-01-13T00:58:14.463Z,12.00
2019-01-13T01:00:43.128Z,13.40
2019-01-13T01:03:11.936Z,11.57
2019-01-13T01:05:40.665Z,12.10
2019-01-13T01:08:09.932Z,14.00
2019-01-13T01:10:38.643Z,13.00
2019-01-13T01:13:07.484Z,12.40
2019-01-13T01:15:36.162Z,13.17
2019-01-13T01:18:05.156Z,15.53
2019-01-13T01:20:34.176Z,13.97
2019-01-13T01:23:02.866Z,15.67
2019-01-13T01:25:31.566Z,13.47
2019-01-13T01:28:00.240Z,13.90
2019-01-13T01:30:33.452Z,13.50
2019-01-13T01:32:59.476Z,12.23
2019-01-13T01:35:28.204Z,12.30
2019-01-13T01:37:56.891Z,13.13
2019-01-13T01:40:25.572Z,13.50
2019-01-13T01:42:54.284Z,12.23
2019-01-13T01:45:22.960Z,11.70
2019-01-13T01:47:51.666Z,12.00
2019-01-13T01:50:20.344Z,12.83
2019-01-13T01:52:49.060Z,12.30
2019-01-13T01:55:18.669Z,12.33
2019-01-13T01:57:47.955Z,13.30
2019-01-13T02:00:22.088Z,12.67
2019-01-13T02:02:51.012Z,14.43
2019-01-13T02:05:19.835Z,13.10
2019-01-13T02:07:48.574Z,13.63
2019-01-13T02:10:19.379Z,13.40
2019-01-13T02:12:48.326Z,14.27
2019-01-13T02:15:19.927Z,13.60
2019-01-13T02:17:48.664Z,13.37
2019-01-13T02:20:19.046Z,13.83
2019-01-13T02:22:47.887Z,13.43
2019-01-13T02:25:19.632Z,12.73
2019-01-13T02:27:48.498Z,12.77
2019-01-13T02:30:19.716Z,11.57
2019-01-13T02:32:48.419Z,14.30
2019-01-13T02:35:17.322Z,11.57
2019-01-13T02:37:46.090Z,12.27
2019-01-13T02:40:16.982Z,11.70
2019-01-13T02:42:45.985Z,11.87
2019-01-13T02:45:17.647Z,12.63
2019-01-13T02:47:46.354Z,11.80
2019-01-13T02:50:15.065Z,11.30
2019-01-13T02:52:43.938Z,14.17
2019-01-13T02:55:12.711Z,11.53
2019-01-13T02:57:41.728Z,13.17
2019-01-13T03:00:22.450Z,14.10
2019-01-13T03:02:51.154Z,13.53
2019-01-13T03:05:20.143Z,12.47
2019-01-13T03:07:48.855Z,12.87
2019-01-13T03:10:19.639Z,12.23
2019-01-13T03:12:48.442Z,13.37
2019-01-13T03:15:19.956Z,14.03
2019-01-13T03:17:49.031Z,13.60
2019-01-13T03:20:18.027Z,14.33
2019-01-13T03:22:46.774Z,14.23
2019-01-13T03:25:17.677Z,13.90
2019-01-13T03:27:46.443Z,12.97
2019-01-13T03:30:17.789Z,13.40
2019-01-13T03:32:46.656Z,14.00
2019-01-13T03:35:15.552Z,13.23
2019-01-13T03:37:44.449Z,14.10
2019-01-13T03:40:16.091Z,13.20
2019-01-13T03:42:44.862Z,14.73
2019-01-13T03:45:13.736Z,13.90
2019-01-13T03:47:42.506Z,13.67
2019-01-13T03:50:16.279Z,11.93
2019-01-13T03:52:52.440Z,12.07
2019-01-13T03:55:16.811Z,11.83
2019-01-13T03:57:45.530Z,12.17
2019-01-13T04:00:20.036Z,11.30
2019-01-13T04:02:48.753Z,10.67
2019-01-13T04:05:17.429Z,8.90
2019-01-13T04:07:46.240Z,7.70
2019-01-13T04:10:16.858Z,9.17
2019-01-13T04:12:45.916Z,7.50
2019-01-13T04:15:32.126Z,6.50
2019-01-13T04:18:01.831Z,6.00
2019-01-13T04:20:30.516Z,6.40
2019-01-13T04:22:59.231Z,6.63
2019-01-13T04:25:27.906Z,6.73
2019-01-13T04:27:56.607Z,6.03
2019-01-13T04:30:25.303Z,7.00
2019-01-13T04:32:54.007Z,6.70
2019-01-13T04:35:22.681Z,7.73
2019-01-13T04:37:51.386Z,7.90
2019-01-13T04:40:20.107Z,7.33
2019-01-13T04:42:48.812Z,8.13
2019-01-13T04:45:17.478Z,9.20
2019-01-13T04:47:46.151Z,8.60
2019-01-13T04:50:15.651Z,8.40
2019-01-13T04:52:44.352Z,9.30
2019-01-13T04:55:13.232Z,9.27
2019-01-13T04:57:41.982Z,9.70
2019-01-13T05:00:13.603Z,8.67
2019-01-13T05:02:42.416Z,9.03
2019-01-13T05:05:11.139Z,9.03
2019-01-13T05:07:39.900Z,8.97
2019-01-13T05:10:11.537Z,9.67
2019-01-13T05:12:40.259Z,9.60
2019-01-13T05:15:09.231Z,10.47
2019-01-13T05:17:38.149Z,10.50
2019-01-13T05:20:12.320Z,12.23
2019-01-13T05:22:41.023Z,10.53
2019-01-13T05:25:09.794Z,10.37
2019-01-13T05:27:38.474Z,10.37
2019-01-13T05:30:10.133Z,11.30
2019-01-13T05:32:38.808Z,11.33
2019-01-13T05:35:07.602Z,9.33
2019-01-13T05:37:36.320Z,9.60
2019-01-13T05:40:07.969Z,10.77
2019-01-13T05:42:36.647Z,9.33
2019-01-13T05:45:08.352Z,10.10
2019-01-13T05:47:37.026Z,10.00
2019-01-13T05:50:08.740Z,10.73
2019-01-13T05:52:38.351Z,9.40
2019-01-13T05:55:08.162Z,9.73
2019-01-13T05:57:36.851Z,9.17
2019-01-13T06:00:14.482Z,8.17
2019-01-13T06:02:43.187Z,7.37
2019-01-13T06:05:11.970Z,9.30
2019-01-13T06:07:40.654Z,8.30
2019-01-13T06:10:12.367Z,8.57
2019-01-13T06:12:41.051Z,9.30
2019-01-13T06:15:12.635Z,7.63
2019-01-13T06:17:41.331Z,7.93
2019-01-13T06:20:13.155Z,8.20
2019-01-13T06:22:41.842Z,7.30
2019-01-13T06:25:10.571Z,7.60
2019-01-13T06:27:40.336Z,6.97
2019-01-13T06:30:11.951Z,7.13
2019-01-13T06:32:40.654Z,6.33
2019-01-13T06:35:09.344Z,5.93
2019-01-13T06:37:38.066Z,5.23
2019-01-13T06:40:10.080Z,4.87
2019-01-13T06:42:38.760Z,4.80
2019-01-13T06:45:10.378Z,4.63
2019-01-13T06:47:39.089Z,4.30
2019-01-13T06:50:12.819Z,4.17
2019-01-13T06:52:41.545Z,4.00
2019-01-13T06:55:10.769Z,3.73
2019-01-13T06:57:39.677Z,3.10
2019-01-13T07:00:14.171Z,3.67
2019-01-13T07:02:42.888Z,2.67
2019-01-13T07:05:11.684Z,3.00
2019-01-13T07:07:40.396Z,2.80
2019-01-13T07:10:10.992Z,2.67
2019-01-13T07:12:39.708Z,2.80
2019-01-13T07:15:13.680Z,2.33
2019-01-13T07:17:42.416Z,1.60
2019-01-13T07:20:13.080Z,2.00
2019-01-13T07:22:43.044Z,1.80
2019-01-13T07:25:11.981Z,1.50
2019-01-13T07:27:40.681Z,1.70
2019-01-13T07:30:17.981Z,1.47
2019-01-13T07:32:46.666Z,1.87
2019-01-13T07:35:15.440Z,1.50
2019-01-13T07:37:44.141Z,1.43
2019-01-13T07:40:17.776Z,1.40
2019-01-13T07:42:46.565Z,1.30
2019-01-13T07:45:17.452Z,1.80
2019-01-13T07:47:46.164Z,1.50
2019-01-13T07:50:16.826Z,1.80
2019-01-13T07:52:45.950Z,1.77
2019-01-13T07:55:16.686Z,2.30
2019-01-13T07:57:45.351Z,1.80
2019-01-13T08:00:19.726Z,2.00
2019-01-13T08:02:48.539Z,1.97
2019-01-13T08:05:17.334Z,2.60
2019-01-13T08:07:46.027Z,2.73
2019-01-13T08:10:15.871Z,2.33
2019-01-13T08:12:44.948Z,2.20
2019-01-13T08:15:21.118Z,2.43
2019-01-13T08:17:49.808Z,2.27
2019-01-13T08:20:21.427Z,2.87
2019-01-13T08:22:50.225Z,2.63
2019-01-13T08:25:19.113Z,2.40
2019-01-13T08:27:47.824Z,2.70
2019-01-13T08:30:20.549Z,3.30
2019-01-13T08:32:49.271Z,2.40
2019-01-13T08:35:17.929Z,2.73
2019-01-13T08:37:46.607Z,4.63
2019-01-13T08:40:20.164Z,3.10
2019-01-13T08:42:48.900Z,2.93
2019-01-13T08:45:18.107Z,3.03
2019-01-13T08:47:46.783Z,3.30
2019-01-13T08:50:18.061Z,3.93
2019-01-13T08:52:46.846Z,3.80
2019-01-13T08:55:16.149Z,3.27
2019-01-13T08:57:45.115Z,3.90
2019-01-13T09:00:22.373Z,3.90
2019-01-13T09:02:51.083Z,3.60
2019-01-13T09:05:19.770Z,4.00
2019-01-13T09:07:48.460Z,4.00
2019-01-13T09:10:19.055Z,4.90
2019-01-13T09:12:47.870Z,3.87
2019-01-13T09:15:24.714Z,4.83
2019-01-13T09:17:53.405Z,4.50
2019-01-13T09:20:24.087Z,4.43
2019-01-13T09:22:52.904Z,4.77
2019-01-13T09:25:21.947Z,5.83
2019-01-13T09:27:50.610Z,4.83
2019-01-13T09:30:21.733Z,5.93
2019-01-13T09:32:50.512Z,5.07
2019-01-13T09:35:19.184Z,4.97
2019-01-13T09:37:47.878Z,5.27
2019-01-13T09:40:19.696Z,4.67
2019-01-13T09:42:48.355Z,5.03
2019-01-13T09:45:17.022Z,5.53
2019-01-13T09:47:45.758Z,6.17
2019-01-13T09:50:16.620Z,6.00
2019-01-13T09:52:45.361Z,6.60
2019-01-13T09:55:16.588Z,6.50
2019-01-13T09:57:45.315Z,7.30
2019-01-13T10:00:23.257Z,7.10
2019-01-13T10:02:52.031Z,8.40
2019-01-13T10:05:20.688Z,9.70
2019-01-13T10:07:49.429Z,10.63
2019-01-13T10:10:18.126Z,12.50
2019-01-13T10:12:46.865Z,11.23
2019-01-13T10:15:24.473Z,11.60
2019-01-13T10:17:53.279Z,12.33
2019-01-13T10:20:22.014Z,11.03
2019-01-13T10:22:51.006Z,11.90
2019-01-13T10:25:19.801Z,11.67
2019-01-13T10:27:48.475Z,12.73
2019-01-13T10:30:25.528Z,12.10
2019-01-13T10:32:55.054Z,14.77
2019-01-13T10:35:24.253Z,13.17
2019-01-13T10:37:53.093Z,12.93
2019-01-13T10:40:23.782Z,14.20
2019-01-13T10:42:52.685Z,13.00
2019-01-13T10:45:21.409Z,15.40
2019-01-13T10:47:52.767Z,13.83
2019-01-13T10:50:24.677Z,12.87
2019-01-13T10:52:54.518Z,13.70
2019-01-13T10:55:23.236Z,15.00
2019-01-13T10:57:51.991Z,12.93
2019-01-13T11:00:28.820Z,13.70
2019-01-13T11:03:01.958Z,13.90
2019-01-13T11:05:28.038Z,11.40
2019-01-13T11:07:56.719Z,11.17
2019-01-13T11:10:25.408Z,10.80
2019-01-13T11:12:54.138Z,12.00
2019-01-13T11:15:22.924Z,10.10
2019-01-13T11:17:51.714Z,9.90
2019-01-13T11:20:26.115Z,10.33
2019-01-13T11:22:54.865Z,9.87
2019-01-13T11:25:23.658Z,9.40
2019-01-13T11:27:52.456Z,8.97
2019-01-13T11:30:23.293Z,9.23
2019-01-13T11:32:52.026Z,8.40
2019-01-13T11:35:20.745Z,8.70
2019-01-13T11:37:49.690Z,7.00
2019-01-13T11:40:24.309Z,8.13
2019-01-13T11:42:53.313Z,8.07
2019-01-13T11:45:22.001Z,6.30
2019-01-13T11:47:50.887Z,7.80
2019-01-13T11:50:21.520Z,6.60
2019-01-13T11:52:50.444Z,6.77
2019-01-13T11:55:19.463Z,6.50
2019-01-13T11:57:49.255Z,5.93
2019-01-13T12:00:20.608Z,5.50
2019-01-13T12:02:49.291Z,6.47
2019-01-13T12:05:18.073Z,7.27
2019-01-13T12:07:47.047Z,5.63
2019-01-13T12:10:18.746Z,4.57
2019-01-13T12:12:47.891Z,4.77
2019-01-13T12:15:18.769Z,5.17
2019-01-13T12:17:47.528Z,5.20
2019-01-13T12:20:18.407Z,5.07
2019-01-13T12:22:47.105Z,5.67
2019-01-13T12:25:17.934Z,5.90
2019-01-13T12:27:46.733Z,6.80
2019-01-13T12:30:21.205Z,7.30
2019-01-13T12:32:49.963Z,5.70
2019-01-13T12:35:18.633Z,4.40
2019-01-13T12:37:47.353Z,5.23
2019-01-13T12:40:21.141Z,4.47
2019-01-13T12:42:50.158Z,6.03
2019-01-13T12:45:21.051Z,6.23
2019-01-13T12:47:49.742Z,5.47
2019-01-13T12:50:20.413Z,5.10
2019-01-13T12:52:49.112Z,5.20
2019-01-13T12:55:17.834Z,6.23
2019-01-13T12:57:46.553Z,5.80
2019-01-13T13:00:17.914Z,6.10
2019-01-13T13:02:46.700Z,8.67
2019-01-13T13:05:16.462Z,5.20
2019-01-13T13:07:45.725Z,5.43
2019-01-13T13:10:20.390Z,5.50
2019-01-13T13:12:49.112Z,6.07
2019-01-13T13:15:17.894Z,6.90
2019-01-13T13:17:46.589Z,7.13
2019-01-13T13:20:16.343Z,5.30
2019-01-13T13:22:45.231Z,5.50
2019-01-13T13:25:14.675Z,5.80
2019-01-13T13:27:43.456Z,6.30
2019-01-13T13:30:21.070Z,6.40
2019-01-13T13:32:49.742Z,5.93
2019-01-13T13:35:18.447Z,5.83
2019-01-13T13:37:47.435Z,5.70
2019-01-13T13:40:21.900Z,5.27
2019-01-13T13:42:50.687Z,4.87
2019-01-13T13:45:19.920Z,4.93
2019-01-13T13:47:48.786Z,4.27
2019-01-13T13:50:23.129Z,5.00
2019-01-13T13:52:52.168Z,3.93
2019-01-13T13:55:21.217Z,4.53
2019-01-13T13:57:49.893Z,4.50
2019-01-13T14:00:21.162Z,5.13
2019-01-13T14:02:49.848Z,5.07
2019-01-13T14:05:18.848Z,4.70
2019-01-13T14:07:47.639Z,4.90
2019-01-13T14:10:19.530Z,5.00
2019-01-13T14:12:48.202Z,5.07
2019-01-13T14:15:16.913Z,6.10
2019-01-13T14:17:45.697Z,5.20
2019-01-13T14:20:17.031Z,4.53
2019-01-13T14:22:45.806Z,4.90
2019-01-13T14:25:14.817Z,5.30
2019-01-13T14:27:43.596Z,5.43
2019-01-13T14:30:21.013Z,4.60
2019-01-13T14:32:49.679Z,5.90
2019-01-13T14:35:18.595Z,5.33
2019-01-13T14:37:47.586Z,5.50
2019-01-13T14:40:24.676Z,5.47
2019-01-13T14:42:53.520Z,5.33
2019-01-13T14:45:23.930Z,5.07
2019-01-13T14:47:52.715Z,5.53
2019-01-13T14:50:26.695Z,4.90
2019-01-13T14:52:56.393Z,5.00
2019-01-13T14:55:25.092Z,5.10
2019-01-13T14:57:53.982Z,5.10
2019-01-13T15:00:25.322Z,4.67
2019-01-13T15:02:54.176Z,5.20
2019-01-13T15:05:23.114Z,6.07
2019-01-13T15:07:52.688Z,5.50
2019-01-13T15:10:23.357Z,4.53
2019-01-13T15:12:52.127Z,5.30
2019-01-13T15:15:22.432Z,5.60
2019-01-13T15:17:51.156Z,4.70
2019-01-13T15:20:21.302Z,5.27
2019-01-13T15:22:51.693Z,5.87
2019-01-13T15:25:23.298Z,5.30
2019-01-13T15:27:52.184Z,6.40
2019-01-13T15:30:26.878Z,6.80
2019-01-13T15:32:55.606Z,5.87
2019-01-13T15:35:24.474Z,7.00
2019-01-13T15:37:53.311Z,7.10
2019-01-13T15:40:22.112Z,10.03
2019-01-13T15:42:50.862Z,8.07
2019-01-13T15:45:19.849Z,7.60
2019-01-13T15:47:48.586Z,9.60
2019-01-13T15:50:22.776Z,8.80
2019-01-13T15:52:51.466Z,8.17
2019-01-13T15:55:20.276Z,8.57
2019-01-13T15:57:48.956Z,9.30
2019-01-13T16:00:20.213Z,8.70
2019-01-13T16:02:49.088Z,8.73
2019-01-13T16:05:17.783Z,10.17
2019-01-13T16:07:46.474Z,8.23
2019-01-13T16:10:17.801Z,9.80
2019-01-13T16:12:46.788Z,9.80
2019-01-13T16:15:15.652Z,10.67
2019-01-13T16:17:44.451Z,10.17
2019-01-13T16:20:28.192Z,9.00
2019-01-13T16:22:56.902Z,9.00
2019-01-13T16:25:25.595Z,10.00
2019-01-13T16:27:54.258Z,9.30
2019-01-13T16:30:27.497Z,9.60
2019-01-13T16:32:56.161Z,8.67
2019-01-13T16:35:25.319Z,8.53
2019-01-13T16:37:54.028Z,8.00
2019-01-13T16:40:23.896Z,8.27
2019-01-13T16:42:52.619Z,8.00
2019-01-13T16:45:21.796Z,8.07
2019-01-13T16:47:50.590Z,8.80
2019-01-13T16:50:24.055Z,7.30
2019-01-13T16:52:54.163Z,8.13
2019-01-13T16:55:23.539Z,7.80
2019-01-13T16:57:52.563Z,8.33
2019-01-13T17:00:26.001Z,7.60
2019-01-13T17:02:54.835Z,9.40
2019-01-13T17:05:24.303Z,7.53
2019-01-13T17:07:53.002Z,8.00
2019-01-13T17:10:23.328Z,8.60
2019-01-13T17:12:52.048Z,7.60
2019-01-13T17:15:31.188Z,7.57
2019-01-13T17:17:59.947Z,7.50
2019-01-13T17:20:28.649Z,7.50
2019-01-13T17:22:57.403Z,7.17
2019-01-13T17:25:27.577Z,7.77
2019-01-13T17:27:56.583Z,7.10
2019-01-13T17:30:27.163Z,6.50
2019-01-13T17:32:55.941Z,6.37
2019-01-13T17:35:24.622Z,6.90
2019-01-13T17:37:53.293Z,6.17
2019-01-13T17:40:23.678Z,5.63
2019-01-13T17:42:52.761Z,6.20
2019-01-13T17:45:26.759Z,5.60
2019-01-13T17:47:55.564Z,7.20
2019-01-13T17:50:25.619Z,5.77
2019-01-13T17:52:54.618Z,6.47
2019-01-13T17:55:27.861Z,1.23
2019-01-13T17:57:56.568Z,1.53
2019-01-13T18:00:28.051Z,1.03
2019-01-13T18:02:59.646Z,1.37
2019-01-13T18:05:28.539Z,1.30
2019-01-13T18:07:57.234Z,1.50
2019-01-13T18:10:26.240Z,1.30
2019-01-13T18:12:54.912Z,1.60
2019-01-13T18:15:23.592Z,1.20
2019-01-13T18:17:52.304Z,1.40
2019-01-13T18:20:22.431Z,1.97
2019-01-13T18:22:51.147Z,1.33
2019-01-13T18:25:19.829Z,1.30
2019-01-13T18:27:48.559Z,0.90
2019-01-13T18:30:19.941Z,1.50
2019-01-13T18:32:48.790Z,1.63
2019-01-13T18:35:19.081Z,1.50
2019-01-13T18:37:50.697Z,1.43
2019-01-13T18:40:22.451Z,3.07
2019-01-13T18:42:51.184Z,1.70
2019-01-13T18:45:20.023Z,1.77
2019-01-13T18:47:48.759Z,1.53
2019-01-13T18:50:21.912Z,1.80
2019-01-13T18:52:59.460Z,1.60
2019-01-13T18:55:28.166Z,1.60
2019-01-13T18:57:56.838Z,2.10
2019-01-13T19:00:26.432Z,2.33
2019-01-13T19:02:55.142Z,2.23
2019-01-13T19:05:25.899Z,2.10
2019-01-13T19:07:54.605Z,1.40
2019-01-13T19:10:35.341Z,1.40
2019-01-13T19:13:19.059Z,1.97
2019-01-13T19:15:50.388Z,1.83
2019-01-13T19:18:19.096Z,2.47
2019-01-13T19:20:47.799Z,2.80
2019-01-13T19:23:16.493Z,2.10
2019-01-13T19:25:45.198Z,2.90
2019-01-13T19:28:14.021Z,2.93
2019-01-13T19:30:42.701Z,2.30
2019-01-13T19:33:11.421Z,2.80
2019-01-13T19:35:40.133Z,1.93
2019-01-13T19:38:08.896Z,2.43
2019-01-13T19:40:37.599Z,2.60
2019-01-13T19:43:06.393Z,2.50
2019-01-13T19:45:35.077Z,2.67
2019-01-13T19:48:03.760Z,2.40
2019-01-13T19:50:32.485Z,2.43
2019-01-13T19:53:01.259Z,2.33
2019-01-13T19:55:30.342Z,2.53
2019-01-13T19:57:59.048Z,2.90
2019-01-13T20:00:30.868Z,2.70
2019-01-13T20:02:59.567Z,2.20
2019-01-13T20:05:28.428Z,3.03
2019-01-13T20:07:57.162Z,2.00
2019-01-13T20:10:25.996Z,2.33
2019-01-13T20:12:55.607Z,2.17
2019-01-13T20:15:24.304Z,2.57
2019-01-13T20:17:53.005Z,3.90
2019-01-13T20:20:22.215Z,6.07
2019-01-13T20:22:50.996Z,3.80
2019-01-13T20:25:20.372Z,2.70
2019-01-13T20:27:49.051Z,3.27
2019-01-13T20:30:29.494Z,2.63
2019-01-13T20:32:58.234Z,3.10
2019-01-13T20:35:27.053Z,3.17
2019-01-13T20:37:55.769Z,2.60
2019-01-13T20:40:24.479Z,3.10
2019-01-13T20:42:53.457Z,2.50
2019-01-13T20:45:31.259Z,2.23
2019-01-13T20:48:00.038Z,2.57
2019-01-13T20:50:28.753Z,2.87
2019-01-13T20:52:57.462Z,3.00
2019-01-13T20:55:26.173Z,2.90
2019-01-13T20:57:54.997Z,3.50
2019-01-13T21:00:28.561Z,3.10
2019-01-13T21:02:57.275Z,4.00
2019-01-13T21:05:26.976Z,2.27
2019-01-13T21:07:56.074Z,3.10
2019-01-13T21:10:24.841Z,3.57
2019-01-13T21:12:53.547Z,3.77
2019-01-13T21:15:25.306Z,2.87
2019-01-13T21:17:57.576Z,3.17
2019-01-13T21:20:24.656Z,3.70
2019-01-13T21:22:53.343Z,3.07
2019-01-13T21:25:22.063Z,3.27
2019-01-13T21:27:50.808Z,3.67
2019-01-13T21:30:25.275Z,3.07
2019-01-13T21:32:53.964Z,4.93
2019-01-13T21:35:22.785Z,3.10
2019-01-13T21:37:51.688Z,3.90
2019-01-13T21:40:20.406Z,2.93
2019-01-13T21:42:49.083Z,4.03
2019-01-13T21:45:22.511Z,2.97
2019-01-13T21:47:51.194Z,2.90
2019-01-13T21:50:22.095Z,3.57
2019-01-13T21:52:50.968Z,3.70
2019-01-13T21:55:20.240Z,3.10
2019-01-13T21:57:48.948Z,2.77
2019-01-13T22:00:20.658Z,2.80
2019-01-13T22:02:49.340Z,2.70
2019-01-13T22:05:18.157Z,2.00
2019-01-13T22:07:47.845Z,2.67
2019-01-13T22:10:21.039Z,1.80
2019-01-13T22:12:49.716Z,2.10
2019-01-13T22:15:19.913Z,2.33
2019-01-13T22:17:48.647Z,1.90
2019-01-13T22:20:19.693Z,2.40
2019-01-13T22:22:48.431Z,1.90
2019-01-13T22:25:17.623Z,1.90
2019-01-13T22:27:46.273Z,2.33
2019-01-13T22:30:22.901Z,2.10
2019-01-13T22:32:51.872Z,1.77
2019-01-13T22:35:20.595Z,3.80
2019-01-13T22:37:55.502Z,2.03
2019-01-13T22:40:19.651Z,1.97
2019-01-13T22:42:48.424Z,2.00
2019-01-13T22:45:19.019Z,3.50
2019-01-13T22:47:47.718Z,2.87
2019-01-13T22:50:17.336Z,2.60
2019-01-13T22:52:46.069Z,2.90
2019-01-13T22:55:14.728Z,2.27
2019-01-13T22:57:43.429Z,2.80
2019-01-13T23:00:45.215Z,3.30
2019-01-13T23:03:13.903Z,2.10
2019-01-13T23:05:42.585Z,2.73
2019-01-13T23:08:11.276Z,2.70
2019-01-13T23:10:39.969Z,3.00
2019-01-13T23:13:08.644Z,2.70
2019-01-13T23:15:37.343Z,2.10
2019-01-13T23:18:06.024Z,2.40
2019-01-13T23:20:34.688Z,2.47
2019-01-13T23:23:03.384Z,2.00
2019-01-13T23:25:32.069Z,2.00
2019-01-13T23:28:00.768Z,2.40
2019-01-13T23:30:29.435Z,3.70
2019-01-13T23:32:58.187Z,2.63
2019-01-13T23:35:26.846Z,2.50
2019-01-13T23:37:55.516Z,2.20
2019-01-13T23:40:24.247Z,2.30
2019-01-13T23:42:52.914Z,2.03
2019-01-13T23:45:21.625Z,3.47
2019-01-13T23:47:50.350Z,2.30
2019-01-13T23:50:19.022Z,2.60
2019-01-13T23:52:47.698Z,2.40
2019-01-13T23:55:16.431Z,2.40
2019-01-13T23:57:45.095Z,3.07
